createdAt,value
2023-04-05T00:01:14.512Z,19.02
2023-04-05T00:03:43.677Z,18.71
2023-04-05T00:06:13.373Z,18.99
2023-04-05T00:08:41.506Z,18.71
2023-04-05T00:11:09.437Z,18.75
2023-04-05T00:13:37.439Z,18.74
2023-04-05T00:16:07.247Z,18.84
2023-04-05T00:18:35.850Z,19.03
2023-04-05T00:21:03.936Z,18.79
2023-04-05T00:23:40.050Z,18.73
2023-04-05T00:26:08.341Z,18.87
2023-04-05T00:28:37.372Z,18.87
2023-04-05T00:31:06.745Z,18.56
2023-04-05T00:33:34.597Z,18.95
2023-04-05T00:36:28.732Z,19.00
2023-04-05T00:38:56.703Z,18.77
2023-04-05T00:41:24.540Z,18.98
2023-04-05T00:43:52.673Z,18.97
2023-04-05T00:46:20.703Z,18.97
2023-04-05T00:48:50.547Z,18.91
2023-04-05T00:51:21.238Z,18.88
2023-04-05T00:53:53.077Z,18.83
2023-04-05T00:56:21.970Z,18.65
2023-04-05T00:58:52.271Z,18.67
2023-04-05T01:01:23.699Z,18.93
2023-04-05T01:04:03.377Z,18.61
2023-04-05T01:06:53.475Z,18.87
2023-04-05T01:09:36.441Z,18.84
2023-04-05T01:12:08.685Z,18.85
2023-04-05T01:14:47.132Z,18.68
2023-04-05T01:17:16.742Z,18.88
2023-04-05T01:19:48.415Z,18.61
2023-04-05T01:22:26.535Z,18.88
2023-04-05T01:25:21.768Z,18.87
2023-04-05T01:27:58.934Z,18.88
2023-04-05T01:30:44.541Z,18.88
2023-04-05T01:33:43.514Z,18.86
2023-04-05T01:36:20.692Z,18.88
2023-04-05T01:38:50.781Z,18.78
2023-04-05T01:41:20.048Z,18.78
2023-04-05T01:43:47.988Z,18.68
2023-04-05T01:46:16.684Z,18.69
2023-04-05T01:48:44.471Z,18.73
2023-04-05T01:51:14.991Z,18.89
2023-04-05T01:53:42.815Z,18.65
2023-04-05T01:56:12.023Z,18.51
2023-04-05T01:58:40.198Z,18.88
2023-04-05T02:01:08.581Z,18.85
2023-04-05T02:03:36.989Z,18.84
2023-04-05T02:06:05.442Z,18.82
2023-04-05T02:08:33.417Z,18.25
2023-04-05T02:11:01.469Z,18.60
2023-04-05T02:13:30.798Z,18.58
2023-04-05T02:15:58.796Z,18.44
2023-04-05T02:18:31.541Z,18.76
2023-04-05T02:21:03.353Z,18.58
2023-04-05T02:23:31.986Z,18.75
2023-04-05T02:26:00.381Z,18.68
2023-04-05T02:28:28.460Z,18.46
2023-04-05T02:30:56.264Z,18.77
2023-04-05T02:33:24.164Z,18.59
2023-04-05T02:35:53.886Z,18.72
2023-04-05T02:38:21.502Z,18.72
2023-04-05T02:40:49.817Z,18.75
2023-04-05T02:43:17.688Z,18.76
2023-04-05T02:45:47.141Z,18.62
2023-04-05T02:48:15.702Z,18.51
2023-04-05T02:50:51.187Z,18.76
2023-04-05T02:53:20.007Z,18.35
2023-04-05T02:55:57.872Z,18.57
2023-04-05T02:58:25.900Z,18.63
2023-04-05T03:00:54.650Z,18.64
2023-04-05T03:03:29.481Z,18.57
2023-04-05T03:06:10.192Z,18.62
2023-04-05T03:08:44.410Z,18.43
2023-04-05T03:11:14.421Z,18.57
2023-04-05T03:13:46.697Z,18.60
2023-04-05T03:16:26.688Z,18.32
2023-04-05T03:18:54.765Z,18.49
2023-04-05T03:21:23.188Z,18.39
2023-04-05T03:24:00.618Z,18.32
2023-04-05T03:26:36.567Z,18.40
2023-04-05T03:29:10.019Z,18.34
2023-04-05T03:31:39.376Z,18.60
2023-04-05T03:34:10.052Z,18.65
2023-04-05T03:36:48.022Z,18.64
2023-04-05T03:39:31.881Z,18.55
2023-04-05T03:41:59.531Z,18.26
2023-04-05T03:44:27.360Z,18.60
2023-04-05T03:46:55.669Z,18.54
2023-04-05T03:49:24.414Z,18.45
2023-04-05T03:51:53.970Z,18.44
2023-04-05T03:54:22.247Z,18.41
2023-04-05T03:56:54.789Z,18.53
2023-04-05T03:59:22.594Z,18.58
2023-04-05T04:01:50.494Z,18.43
2023-04-05T04:04:21.291Z,18.58
2023-04-05T04:06:49.967Z,18.48
2023-04-05T04:09:23.337Z,18.18
2023-04-05T04:11:51.106Z,18.48
2023-04-05T04:14:22.007Z,18.10
2023-04-05T04:17:33.293Z,18.46
2023-04-05T04:20:19.866Z,18.45
2023-04-05T04:22:58.894Z,18.26
2023-04-05T04:25:56.069Z,18.22
2023-04-05T04:28:45.853Z,18.31
2023-04-05T04:31:34.035Z,18.43
2023-04-05T04:34:22.146Z,18.35
2023-04-05T04:37:07.712Z,18.46
2023-04-05T04:39:55.558Z,18.43
2023-04-05T04:43:01.932Z,18.45
2023-04-05T04:45:39.839Z,18.43
2023-04-05T04:48:21.485Z,18.45
2023-04-05T04:50:57.624Z,18.51
2023-04-05T04:53:26.269Z,18.52
2023-04-05T04:55:55.535Z,18.31
2023-04-05T04:58:23.218Z,18.33
2023-04-05T05:01:09.830Z,18.34
2023-04-05T05:03:40.561Z,18.38
2023-04-05T05:06:08.506Z,18.43
2023-04-05T05:08:37.519Z,18.34
2023-04-05T05:11:07.615Z,18.55
2023-04-05T05:13:35.675Z,18.40
2023-04-05T05:16:05.761Z,18.51
2023-04-05T05:18:33.715Z,18.18
2023-04-05T05:21:01.931Z,18.17
2023-04-05T05:23:29.836Z,18.32
2023-04-05T05:25:59.605Z,18.11
2023-04-05T05:28:28.142Z,18.41
2023-04-05T05:30:56.114Z,18.44
2023-04-05T05:33:24.461Z,18.20
2023-04-05T05:35:52.817Z,18.35
2023-04-05T05:38:23.003Z,18.51
2023-04-05T05:40:57.882Z,18.38
2023-04-05T05:43:25.588Z,18.56
2023-04-05T05:45:53.361Z,18.52
2023-04-05T05:48:21.155Z,18.63
2023-04-05T05:50:49.398Z,18.68
2023-04-05T05:53:18.681Z,18.46
2023-04-05T05:55:46.873Z,18.62
2023-04-05T05:58:14.560Z,18.65
2023-04-05T06:00:42.504Z,18.60
2023-04-05T06:03:11.174Z,18.77
2023-04-05T06:05:40.558Z,18.65
2023-04-05T06:08:08.522Z,18.62
2023-04-05T06:10:38.047Z,18.64
2023-04-05T06:13:05.911Z,18.24
2023-04-05T06:15:33.790Z,18.55
2023-04-05T06:18:01.609Z,18.39
2023-04-05T06:20:29.416Z,18.53
2023-04-05T06:23:08.778Z,18.71
2023-04-05T06:25:40.631Z,18.78
2023-04-05T06:28:12.085Z,18.58
2023-04-05T06:30:43.880Z,18.59
2023-04-05T06:33:14.703Z,18.82
2023-04-05T06:35:44.423Z,18.77
2023-04-05T06:38:12.211Z,18.60
2023-04-05T06:40:42.542Z,18.86
2023-04-05T06:43:13.750Z,18.87
2023-04-05T06:45:46.091Z,18.73
2023-04-05T06:48:15.135Z,18.54
2023-04-05T06:50:43.022Z,18.51
2023-04-05T06:53:18.429Z,18.81
2023-04-05T06:55:53.652Z,18.84
2023-04-05T06:58:21.519Z,18.77
2023-04-05T07:00:50.220Z,18.89
2023-04-05T07:03:18.907Z,18.78
2023-04-05T07:05:59.508Z,18.88
2023-04-05T07:08:28.704Z,18.70
2023-04-05T07:10:56.516Z,18.88
2023-04-05T07:13:25.336Z,18.79
2023-04-05T07:15:59.413Z,18.86
2023-04-05T07:18:27.299Z,18.89
2023-04-05T07:21:00.381Z,18.92
2023-04-05T07:23:29.079Z,18.90
2023-04-05T07:26:06.152Z,18.72
2023-04-05T07:28:36.018Z,18.86
2023-04-05T07:31:05.838Z,18.95
2023-04-05T07:33:34.455Z,18.95
2023-04-05T07:36:03.752Z,18.83
2023-04-05T07:38:31.624Z,19.04
2023-04-05T07:40:59.383Z,18.79
2023-04-05T07:43:27.310Z,18.92
2023-04-05T07:46:02.520Z,19.15
2023-04-05T07:48:31.506Z,19.12
2023-04-05T07:51:07.260Z,19.25
2023-04-05T07:53:37.804Z,19.36
2023-04-05T07:56:10.396Z,19.36
2023-04-05T07:58:42.194Z,19.38
2023-04-05T08:01:11.187Z,19.36
2023-04-05T08:03:40.153Z,19.36
2023-04-05T08:06:19.368Z,19.34
2023-04-05T08:08:47.616Z,19.36
2023-04-05T08:11:15.784Z,19.31
2023-04-05T08:13:44.014Z,19.33
2023-04-05T08:16:12.238Z,19.43
2023-04-05T08:18:40.269Z,19.43
2023-04-05T08:21:08.061Z,19.43
2023-04-05T08:23:35.875Z,19.42
2023-04-05T08:26:04.180Z,19.50
2023-04-05T08:28:31.961Z,19.50
2023-04-05T08:30:59.660Z,19.63
2023-04-05T08:33:30.973Z,19.66
2023-04-05T08:36:05.759Z,19.73
2023-04-05T08:38:33.790Z,19.71
2023-04-05T08:41:11.605Z,19.60
2023-04-05T08:43:54.158Z,19.76
2023-04-05T08:46:24.253Z,19.76
2023-04-05T08:48:53.220Z,19.81
2023-04-05T08:51:22.925Z,19.81
2023-04-05T08:53:54.005Z,19.82
2023-04-05T08:56:32.648Z,19.66
2023-04-05T08:59:06.709Z,19.80
2023-04-05T09:01:39.374Z,19.81
2023-04-05T09:04:12.250Z,19.67
2023-04-05T09:06:40.821Z,19.82
2023-04-05T09:09:09.307Z,19.88
2023-04-05T09:11:38.312Z,19.72
2023-04-05T09:14:07.364Z,19.89
2023-04-05T09:16:39.994Z,19.75
2023-04-05T09:19:08.973Z,20.01
2023-04-05T09:22:02.830Z,20.01
2023-04-05T09:24:42.259Z,19.92
2023-04-05T09:27:11.584Z,19.60
2023-04-05T09:29:43.195Z,19.81
2023-04-05T09:32:13.045Z,19.46
2023-04-05T09:34:42.994Z,19.79
2023-04-05T09:37:23.730Z,19.72
2023-04-05T09:40:03.628Z,19.77
2023-04-05T09:42:43.414Z,19.46
2023-04-05T09:45:11.540Z,19.64
2023-04-05T09:47:58.017Z,19.41
2023-04-05T09:50:26.192Z,19.47
2023-04-05T09:53:10.805Z,19.68
2023-04-05T09:55:38.664Z,19.53
2023-04-05T09:58:12.518Z,19.71
2023-04-05T10:00:59.987Z,19.61
2023-04-05T10:03:31.164Z,19.31
2023-04-05T10:05:59.922Z,19.72
2023-04-05T10:08:28.059Z,19.47
2023-04-05T10:10:56.497Z,19.62
2023-04-05T10:13:24.519Z,19.63
2023-04-05T10:15:56.257Z,19.47
2023-04-05T10:18:32.827Z,19.58
2023-04-05T10:21:02.578Z,19.30
2023-04-05T10:23:35.204Z,19.53
2023-04-05T10:26:19.518Z,19.51
2023-04-05T10:28:52.703Z,19.60
2023-04-05T10:31:50.567Z,19.35
2023-04-05T10:34:36.103Z,19.14
2023-04-05T10:37:04.452Z,19.58
2023-04-05T10:39:42.722Z,19.46
2023-04-05T10:42:10.574Z,19.58
2023-04-05T10:44:41.149Z,19.27
2023-04-05T10:47:14.165Z,19.52
2023-04-05T10:49:50.221Z,19.56
2023-04-05T10:52:18.413Z,19.22
2023-04-05T10:54:46.486Z,19.61
2023-04-05T10:57:14.849Z,19.24
2023-04-05T10:59:45.789Z,19.60
2023-04-05T11:02:15.331Z,19.20
2023-04-05T11:04:43.456Z,19.06
2023-04-05T11:07:16.044Z,19.58
2023-04-05T11:10:00.813Z,19.47
2023-04-05T11:12:47.169Z,19.56
2023-04-05T11:15:30.477Z,19.55
2023-04-05T11:18:04.492Z,19.56
2023-04-05T11:20:43.709Z,19.27
2023-04-05T11:23:13.676Z,19.53
2023-04-05T11:25:47.466Z,19.49
2023-04-05T11:28:29.884Z,19.50
2023-04-05T11:31:11.561Z,19.29
2023-04-05T11:33:54.744Z,19.50
2023-04-05T11:36:46.073Z,19.31
2023-04-05T11:39:21.277Z,19.49
2023-04-05T11:42:06.654Z,19.50
2023-04-05T11:44:49.157Z,19.44
2023-04-05T11:47:18.246Z,19.08
2023-04-05T11:49:50.165Z,19.54
2023-04-05T11:52:20.741Z,19.18
2023-04-05T11:54:49.866Z,19.34
2023-04-05T11:57:23.019Z,19.38
2023-04-05T11:59:54.431Z,19.62
2023-04-05T12:02:22.809Z,19.40
2023-04-05T12:04:56.355Z,19.65
2023-04-05T12:07:28.423Z,19.65
2023-04-05T12:10:02.098Z,19.63
2023-04-05T12:12:38.954Z,19.19
2023-04-05T12:15:09.281Z,19.67
2023-04-05T12:17:44.315Z,19.51
2023-04-05T12:20:14.500Z,19.67
2023-04-05T12:22:44.294Z,19.66
2023-04-05T12:25:13.322Z,19.70
2023-04-05T12:27:41.438Z,19.72
2023-04-05T12:30:23.695Z,19.64
2023-04-05T12:32:53.473Z,19.74
2023-04-05T12:35:33.121Z,19.75
2023-04-05T12:38:06.065Z,19.75
2023-04-05T12:40:37.211Z,19.56
2023-04-05T12:43:07.323Z,19.74
2023-04-05T12:45:42.416Z,19.69
2023-04-05T12:48:13.400Z,19.75
2023-04-05T12:50:46.126Z,19.77
2023-04-05T12:53:23.550Z,19.69
2023-04-05T12:55:53.367Z,19.75
2023-04-05T12:58:23.696Z,19.86
2023-04-05T13:00:53.023Z,19.86
2023-04-05T13:03:21.902Z,19.88
2023-04-05T13:05:50.158Z,19.86
2023-04-05T13:08:21.205Z,19.80
2023-04-05T13:10:49.837Z,20.04
2023-04-05T13:13:18.331Z,19.62
2023-04-05T13:15:46.261Z,20.02
2023-04-05T13:18:15.129Z,20.04
2023-04-05T13:20:43.484Z,19.88
2023-04-05T13:23:13.085Z,20.15
2023-04-05T13:25:43.276Z,20.18
2023-04-05T13:28:12.013Z,20.17
2023-04-05T13:30:39.831Z,20.00
2023-04-05T13:33:10.348Z,20.24
2023-04-05T13:35:39.513Z,20.27
2023-04-05T13:38:07.504Z,20.13
2023-04-05T13:40:35.422Z,20.24
2023-04-05T13:43:03.812Z,20.24
2023-04-05T13:45:34.752Z,19.96
2023-04-05T13:48:05.179Z,20.28
2023-04-05T13:50:32.919Z,20.25
2023-04-05T13:53:00.951Z,19.84
2023-04-05T13:55:28.937Z,20.19
2023-04-05T13:57:56.979Z,20.01
2023-04-05T14:00:24.892Z,20.27
2023-04-05T14:02:52.803Z,20.11
2023-04-05T14:05:20.616Z,20.25
2023-04-05T14:07:50.378Z,20.30
2023-04-05T14:10:19.825Z,20.25
2023-04-05T14:12:47.826Z,20.07
2023-04-05T14:15:15.933Z,20.24
2023-04-05T14:17:43.910Z,20.22
2023-04-05T14:20:12.005Z,20.11
2023-04-05T14:22:39.626Z,19.97
2023-04-05T14:25:08.409Z,20.19
2023-04-05T14:27:41.421Z,19.87
2023-04-05T14:30:11.288Z,20.17
2023-04-05T14:32:39.262Z,19.87
2023-04-05T14:35:07.606Z,19.83
2023-04-05T14:37:35.473Z,20.17
2023-04-05T14:40:03.240Z,19.78
2023-04-05T14:42:45.207Z,20.01
2023-04-05T14:45:17.151Z,19.96
2023-04-05T14:47:45.059Z,20.01
2023-04-05T14:50:13.603Z,20.05
2023-04-05T14:52:41.671Z,19.75
2023-04-05T14:55:11.195Z,20.09
2023-04-05T14:57:40.236Z,20.03
2023-04-05T15:00:09.253Z,20.09
2023-04-05T15:02:38.170Z,19.94
2023-04-05T15:05:07.776Z,20.05
2023-04-05T15:07:35.921Z,20.00
2023-04-05T15:10:05.456Z,19.93
2023-04-05T15:12:33.391Z,20.04
2023-04-05T15:15:02.446Z,19.93
2023-04-05T15:17:30.806Z,20.07
2023-04-05T15:19:58.615Z,19.97
2023-04-05T15:22:26.353Z,20.09
2023-04-05T15:24:55.798Z,19.88
2023-04-05T15:27:23.572Z,19.83
2023-04-05T15:29:51.717Z,19.91
2023-04-05T15:32:19.422Z,19.90
2023-04-05T15:34:47.345Z,19.45
2023-04-05T15:37:15.209Z,19.92
2023-04-05T15:39:44.391Z,20.11
2023-04-05T15:42:12.358Z,20.05
2023-04-05T15:44:40.063Z,20.07
2023-04-05T15:47:07.794Z,19.98
2023-04-05T15:49:35.721Z,20.07
2023-04-05T15:52:03.644Z,19.99
2023-04-05T15:54:31.652Z,20.06
2023-04-05T15:56:59.361Z,19.93
2023-04-05T15:59:27.467Z,19.96
2023-04-05T16:01:55.317Z,20.10
2023-04-05T16:04:24.772Z,20.10
2023-04-05T16:06:52.386Z,19.91
2023-04-05T16:09:20.168Z,20.07
2023-04-05T16:11:47.968Z,20.05
2023-04-05T16:14:15.833Z,19.91
2023-04-05T16:16:53.204Z,20.04
2023-04-05T16:19:26.579Z,19.80
2023-04-05T16:21:54.471Z,19.99
2023-04-05T16:24:23.596Z,20.05
2023-04-05T16:26:51.772Z,20.07
2023-04-05T16:29:19.870Z,20.04
2023-04-05T16:31:47.819Z,19.87
2023-04-05T16:34:16.010Z,20.00
2023-04-05T16:36:43.937Z,19.76
2023-04-05T16:39:12.228Z,19.82
2023-04-05T16:41:40.097Z,19.79
2023-04-05T16:44:08.660Z,20.04
2023-04-05T16:46:36.623Z,19.81
2023-04-05T16:49:05.026Z,20.04
2023-04-05T16:51:38.283Z,20.02
2023-04-05T16:54:06.398Z,20.00
2023-04-05T16:56:34.799Z,19.97
2023-04-05T16:59:06.737Z,19.87
2023-04-05T17:01:35.634Z,19.83
2023-04-05T17:04:03.935Z,19.65
2023-04-05T17:06:34.013Z,19.91
2023-04-05T17:09:02.465Z,19.62
2023-04-05T17:11:30.627Z,19.93
2023-04-05T17:13:59.706Z,19.77
2023-04-05T17:16:28.118Z,19.53
2023-04-05T17:18:56.122Z,19.79
2023-04-05T17:21:23.930Z,19.78
2023-04-05T17:23:51.922Z,19.82
2023-04-05T17:26:19.655Z,19.74
2023-04-05T17:28:47.502Z,19.58
2023-04-05T17:31:18.980Z,19.84
2023-04-05T17:33:48.945Z,19.60
2023-04-05T17:36:18.112Z,19.81
2023-04-05T17:38:46.360Z,19.64
2023-04-05T17:41:14.718Z,19.62
2023-04-05T17:43:43.428Z,19.67
2023-04-05T17:46:14.111Z,19.58
2023-04-05T17:48:42.468Z,19.79
2023-04-05T17:51:10.906Z,19.52
2023-04-05T17:53:38.816Z,19.50
2023-04-05T17:56:06.958Z,19.62
2023-04-05T17:58:34.815Z,19.81
2023-04-05T18:01:02.825Z,19.57
2023-04-05T18:03:31.088Z,19.56
2023-04-05T18:05:59.080Z,19.63
2023-04-05T18:08:27.137Z,19.86
2023-04-05T18:10:58.289Z,19.86
2023-04-05T18:13:27.473Z,19.86
2023-04-05T18:15:56.871Z,19.73
2023-04-05T18:18:26.525Z,19.86
2023-04-05T18:21:01.833Z,19.83
2023-04-05T18:23:29.951Z,19.84
2023-04-05T18:25:58.447Z,19.86
2023-04-05T18:28:26.454Z,19.56
2023-04-05T18:30:55.077Z,19.91
2023-04-05T18:33:23.162Z,19.99
2023-04-05T18:35:51.929Z,19.89
2023-04-05T18:38:22.886Z,19.81
2023-04-05T18:40:50.708Z,19.99
2023-04-05T18:43:18.882Z,19.73
2023-04-05T18:45:46.738Z,19.93
2023-04-05T18:48:15.581Z,19.66
2023-04-05T18:50:43.413Z,19.82
2023-04-05T18:53:12.158Z,19.81
2023-04-05T18:55:40.008Z,19.78
2023-04-05T18:58:07.887Z,19.79
2023-04-05T19:00:35.818Z,19.53
2023-04-05T19:03:06.943Z,19.61
2023-04-05T19:05:34.850Z,19.72
2023-04-05T19:08:03.779Z,19.52
2023-04-05T19:10:31.523Z,19.72
2023-04-05T19:12:59.475Z,19.67
2023-04-05T19:15:28.269Z,19.64
2023-04-05T19:17:56.456Z,19.50
2023-04-05T19:20:25.826Z,19.29
2023-04-05T19:22:53.590Z,19.37
2023-04-05T19:25:21.335Z,19.54
2023-04-05T19:27:49.231Z,19.69
2023-04-05T19:30:16.925Z,19.63
2023-04-05T19:32:44.786Z,19.69
2023-04-05T19:35:12.863Z,19.64
2023-04-05T19:37:40.863Z,19.62
2023-04-05T19:40:09.135Z,19.66
2023-04-05T19:42:37.126Z,19.72
2023-04-05T19:45:08.407Z,19.51
2023-04-05T19:47:42.813Z,19.66
2023-04-05T19:50:33.756Z,19.68
2023-04-05T19:53:01.609Z,19.61
2023-04-05T19:55:36.442Z,19.68
2023-04-05T19:58:09.447Z,19.66
2023-04-05T20:00:38.808Z,19.63
2023-04-05T20:03:32.632Z,19.59
2023-04-05T20:06:28.076Z,19.58
2023-04-05T20:09:02.873Z,19.54
2023-04-05T20:11:31.646Z,19.56
2023-04-05T20:14:02.286Z,19.56
2023-04-05T20:16:32.986Z,19.59
2023-04-05T20:19:07.246Z,19.60
2023-04-05T20:21:36.839Z,19.56
2023-04-05T20:24:08.719Z,19.41
2023-04-05T20:26:36.498Z,19.42
2023-04-05T20:29:08.508Z,19.55
2023-04-05T20:31:39.494Z,19.53
2023-04-05T20:34:12.305Z,19.55
2023-04-05T20:36:49.574Z,19.54
2023-04-05T20:39:17.694Z,19.49
2023-04-05T20:41:46.637Z,19.42
2023-04-05T20:44:14.361Z,19.43
2023-04-05T20:46:42.331Z,19.37
2023-04-05T20:49:10.729Z,19.41
2023-04-05T20:51:41.870Z,19.43
2023-04-05T20:54:11.960Z,19.40
2023-04-05T20:56:40.315Z,19.31
2023-04-05T20:59:08.783Z,19.36
2023-04-05T21:01:38.461Z,19.42
2023-04-05T21:04:06.810Z,19.39
2023-04-05T21:06:36.904Z,19.10
2023-04-05T21:09:04.932Z,19.13
2023-04-05T21:11:32.694Z,19.29
2023-04-05T21:14:01.812Z,19.19
2023-04-05T21:16:29.728Z,19.17
2023-04-05T21:18:57.448Z,19.29
2023-04-05T21:21:25.974Z,19.12
2023-04-05T21:23:53.832Z,19.05
2023-04-05T21:26:21.614Z,19.15
2023-04-05T21:28:49.406Z,19.36
2023-04-05T21:31:17.270Z,19.36
2023-04-05T21:33:49.790Z,19.35
2023-04-05T21:36:18.102Z,19.30
2023-04-05T21:38:45.886Z,19.13
2023-04-05T21:41:13.615Z,19.09
2023-04-05T21:43:41.401Z,19.34
2023-04-05T21:46:09.284Z,19.25
2023-04-05T21:48:46.012Z,19.20
2023-04-05T21:51:14.506Z,19.26
2023-04-05T21:53:42.505Z,19.40
2023-04-05T21:56:10.294Z,19.18
2023-04-05T21:58:38.189Z,19.19
2023-04-05T22:01:09.190Z,19.40
2023-04-05T22:03:37.059Z,19.40
2023-04-05T22:06:05.248Z,19.36
2023-04-05T22:08:34.349Z,19.28
2023-04-05T22:11:02.603Z,19.10
2023-04-05T22:13:30.817Z,19.39
2023-04-05T22:15:58.764Z,19.26
2023-04-05T22:18:29.139Z,19.13
2023-04-05T22:20:57.084Z,19.38
2023-04-05T22:23:24.964Z,19.21
2023-04-05T22:25:53.392Z,19.29
2023-04-05T22:28:21.806Z,19.08
2023-04-05T22:30:50.085Z,19.11
2023-04-05T22:33:17.980Z,19.22
2023-04-05T22:35:45.875Z,19.16
2023-04-05T22:38:13.602Z,19.32
2023-04-05T22:40:42.397Z,19.33
2023-04-05T22:43:10.107Z,19.22
2023-04-05T22:45:38.394Z,19.24
2023-04-05T22:48:06.602Z,19.35
2023-04-05T22:50:34.535Z,19.29
2023-04-05T22:53:03.341Z,19.27
2023-04-05T22:55:31.613Z,19.34
2023-04-05T22:57:59.426Z,19.17
2023-04-05T23:00:28.049Z,19.28
2023-04-05T23:02:56.129Z,19.21
2023-04-05T23:05:24.385Z,18.99
2023-04-05T23:07:52.437Z,19.21
2023-04-05T23:10:21.894Z,19.26
2023-04-05T23:12:50.114Z,19.15
2023-04-05T23:15:17.987Z,19.25
2023-04-05T23:17:47.086Z,19.09
2023-04-05T23:20:14.885Z,18.95
2023-04-05T23:22:42.850Z,19.04
2023-04-05T23:25:10.823Z,19.07
2023-04-05T23:27:38.957Z,19.05
2023-04-05T23:30:07.818Z,18.91
2023-04-05T23:32:36.727Z,19.25
2023-04-05T23:35:05.401Z,18.97
2023-04-05T23:37:33.109Z,19.27
2023-04-05T23:40:01.020Z,19.29
2023-04-05T23:42:28.833Z,19.06
2023-04-05T23:44:56.655Z,19.07
2023-04-05T23:47:24.515Z,19.21
2023-04-05T23:49:53.543Z,18.99
2023-04-05T23:52:21.402Z,19.15
2023-04-05T23:54:49.073Z,19.19
2023-04-05T23:57:17.092Z,19.04
2023-04-05T23:59:44.993Z,19.26
